sensor_id;sensor_type;location;lat;lon;timestamp;P1;durP1;ratioP1;P2;durP2;ratioP2
23444;SDS011;11895;48.738;9.320;2022-07-11T00:00:11;4.88;;;1.70;;
23444;SDS011;11895;48.738;9.320;2022-07-11T00:02:42;5.88;;;1.42;;
23444;SDS011;11895;48.738;9.320;2022-07-11T00:05:11;6.43;;;2.08;;
23444;SDS011;11895;48.738;9.320;2022-07-11T00:07:42;6.28;;;2.10;;
23444;SDS011;11895;48.738;9.320;2022-07-11T00:10:10;6.30;;;1.80;;
23444;SDS011;11895;48.738;9.320;2022-07-11T00:12:38;6.55;;;2.17;;
23444;SDS011;11895;48.738;9.320;2022-07-11T00:15:06;3.53;;;1.70;;
23444;SDS011;11895;48.738;9.320;2022-07-11T00:17:34;4.18;;;1.88;;
23444;SDS011;11895;48.738;9.320;2022-07-11T00:20:02;5.38;;;2.00;;
23444;SDS011;11895;48.738;9.320;2022-07-11T00:22:30;4.93;;;1.97;;
23444;SDS011;11895;48.738;9.320;2022-07-11T00:24:58;3.72;;;1.58;;
23444;SDS011;11895;48.738;9.320;2022-07-11T00:27:26;5.65;;;2.70;;
23444;SDS011;11895;48.738;9.320;2022-07-11T00:29:55;3.47;;;1.45;;
23444;SDS011;11895;48.738;9.320;2022-07-11T00:32:23;10.85;;;1.67;;
23444;SDS011;11895;48.738;9.320;2022-07-11T00:34:50;5.10;;;1.70;;
23444;SDS011;11895;48.738;9.320;2022-07-11T00:37:18;3.92;;;1.70;;
23444;SDS011;11895;48.738;9.320;2022-07-11T00:39:46;4.78;;;1.50;;
23444;SDS011;11895;48.738;9.320;2022-07-11T00:42:17;5.65;;;1.60;;
23444;SDS011;11895;48.738;9.320;2022-07-11T00:44:46;9.30;;;2.20;;
23444;SDS011;11895;48.738;9.320;2022-07-11T00:47:14;4.90;;;1.67;;
23444;SDS011;11895;48.738;9.320;2022-07-11T00:49:44;4.10;;;2.13;;
23444;SDS011;11895;48.738;9.320;2022-07-11T00:52:15;3.42;;;1.42;;
23444;SDS011;11895;48.738;9.320;2022-07-11T00:54:45;4.88;;;1.75;;
23444;SDS011;11895;48.738;9.320;2022-07-11T00:57:13;5.95;;;2.08;;
23444;SDS011;11895;48.738;9.320;2022-07-11T00:59:41;5.90;;;1.88;;
23444;SDS011;11895;48.738;9.320;2022-07-11T01:02:09;5.65;;;1.80;;
23444;SDS011;11895;48.738;9.320;2022-07-11T01:04:39;5.20;;;1.67;;
23444;SDS011;11895;48.738;9.320;2022-07-11T01:07:07;5.80;;;1.75;;
23444;SDS011;11895;48.738;9.320;2022-07-11T01:09:36;4.72;;;1.73;;
23444;SDS011;11895;48.738;9.320;2022-07-11T01:12:06;5.28;;;1.60;;
23444;SDS011;11895;48.738;9.320;2022-07-11T01:14:36;4.00;;;1.45;;
23444;SDS011;11895;48.738;9.320;2022-07-11T01:17:04;4.20;;;1.70;;
23444;SDS011;11895;48.738;9.320;2022-07-11T01:19:32;2.88;;;1.23;;
23444;SDS011;11895;48.738;9.320;2022-07-11T01:22:00;6.22;;;1.58;;
23444;SDS011;11895;48.738;9.320;2022-07-11T01:24:31;4.38;;;1.63;;
23444;SDS011;11895;48.738;9.320;2022-07-11T01:26:59;5.88;;;1.70;;
23444;SDS011;11895;48.738;9.320;2022-07-11T01:29:28;4.55;;;1.60;;
23444;SDS011;11895;48.738;9.320;2022-07-11T01:31:55;5.80;;;1.40;;
23444;SDS011;11895;48.738;9.320;2022-07-11T01:34:23;5.60;;;1.75;;
23444;SDS011;11895;48.738;9.320;2022-07-11T01:36:51;5.53;;;1.75;;
23444;SDS011;11895;48.738;9.320;2022-07-11T01:39:19;5.63;;;1.83;;
23444;SDS011;11895;48.738;9.320;2022-07-11T01:41:47;2.83;;;1.35;;
23444;SDS011;11895;48.738;9.320;2022-07-11T01:44:16;4.85;;;1.40;;
23444;SDS011;11895;48.738;9.320;2022-07-11T01:46:44;3.17;;;1.00;;
23444;SDS011;11895;48.738;9.320;2022-07-11T01:49:12;5.90;;;1.30;;
23444;SDS011;11895;48.738;9.320;2022-07-11T01:51:40;3.30;;;1.40;;
23444;SDS011;11895;48.738;9.320;2022-07-11T01:54:09;4.15;;;1.40;;
23444;SDS011;11895;48.738;9.320;2022-07-11T01:56:37;4.15;;;1.60;;
23444;SDS011;11895;48.738;9.320;2022-07-11T01:59:05;3.75;;;1.65;;
23444;SDS011;11895;48.738;9.320;2022-07-11T02:01:33;5.40;;;1.67;;
23444;SDS011;11895;48.738;9.320;2022-07-11T02:04:01;5.50;;;1.45;;
23444;SDS011;11895;48.738;9.320;2022-07-11T02:06:28;5.65;;;1.60;;
23444;SDS011;11895;48.738;9.320;2022-07-11T02:08:57;3.90;;;1.42;;
23444;SDS011;11895;48.738;9.320;2022-07-11T02:11:25;4.55;;;1.77;;
23444;SDS011;11895;48.738;9.320;2022-07-11T02:13:53;5.35;;;1.63;;
23444;SDS011;11895;48.738;9.320;2022-07-11T02:16:20;4.63;;;1.42;;
23444;SDS011;11895;48.738;9.320;2022-07-11T02:18:48;3.65;;;1.60;;
23444;SDS011;11895;48.738;9.320;2022-07-11T02:21:16;5.63;;;1.65;;
23444;SDS011;11895;48.738;9.320;2022-07-11T02:23:44;7.38;;;1.83;;
23444;SDS011;11895;48.738;9.320;2022-07-11T02:26:12;6.80;;;1.60;;
23444;SDS011;11895;48.738;9.320;2022-07-11T02:32:53;4.75;;;1.60;;
23444;SDS011;11895;48.738;9.320;2022-07-11T02:35:20;3.33;;;1.70;;
23444;SDS011;11895;48.738;9.320;2022-07-11T02:37:50;3.55;;;1.30;;
23444;SDS011;11895;48.738;9.320;2022-07-11T02:40:18;5.13;;;1.35;;
23444;SDS011;11895;48.738;9.320;2022-07-11T02:42:46;5.72;;;1.48;;
23444;SDS011;11895;48.738;9.320;2022-07-11T02:48:32;4.10;;;1.50;;
23444;SDS011;11895;48.738;9.320;2022-07-11T02:51:26;4.85;;;1.30;;
23444;SDS011;11895;48.738;9.320;2022-07-11T02:54:03;2.85;;;1.10;;
23444;SDS011;11895;48.738;9.320;2022-07-11T02:56:31;4.78;;;1.60;;
23444;SDS011;11895;48.738;9.320;2022-07-11T02:58:59;4.45;;;1.45;;
23444;SDS011;11895;48.738;9.320;2022-07-11T03:01:27;3.58;;;1.42;;
23444;SDS011;11895;48.738;9.320;2022-07-11T03:03:54;4.45;;;1.65;;
23444;SDS011;11895;48.738;9.320;2022-07-11T03:06:22;3.80;;;1.33;;
23444;SDS011;11895;48.738;9.320;2022-07-11T03:08:50;4.82;;;1.73;;
23444;SDS011;11895;48.738;9.320;2022-07-11T03:11:17;4.43;;;1.63;;
23444;SDS011;11895;48.738;9.320;2022-07-11T03:13:46;3.63;;;1.30;;
23444;SDS011;11895;48.738;9.320;2022-07-11T03:16:13;4.57;;;1.38;;
23444;SDS011;11895;48.738;9.320;2022-07-11T03:18:41;7.13;;;1.52;;
23444;SDS011;11895;48.738;9.320;2022-07-11T03:21:09;4.85;;;1.60;;
23444;SDS011;11895;48.738;9.320;2022-07-11T03:23:38;3.97;;;1.50;;
23444;SDS011;11895;48.738;9.320;2022-07-11T03:26:07;7.33;;;1.77;;
23444;SDS011;11895;48.738;9.320;2022-07-11T03:28:34;9.30;;;1.63;;
23444;SDS011;11895;48.738;9.320;2022-07-11T03:31:04;6.30;;;2.20;;
23444;SDS011;11895;48.738;9.320;2022-07-11T03:33:31;5.95;;;2.20;;
23444;SDS011;11895;48.738;9.320;2022-07-11T03:35:59;5.50;;;1.70;;
23444;SDS011;11895;48.738;9.320;2022-07-11T03:38:26;4.63;;;1.75;;
23444;SDS011;11895;48.738;9.320;2022-07-11T03:40:54;4.70;;;1.70;;
23444;SDS011;11895;48.738;9.320;2022-07-11T03:43:22;4.20;;;1.83;;
23444;SDS011;11895;48.738;9.320;2022-07-11T03:45:50;6.18;;;1.80;;
23444;SDS011;11895;48.738;9.320;2022-07-11T03:48:18;7.50;;;2.40;;
23444;SDS011;11895;48.738;9.320;2022-07-11T03:50:45;7.90;;;4.47;;
23444;SDS011;11895;48.738;9.320;2022-07-11T03:53:14;3.97;;;2.35;;
23444;SDS011;11895;48.738;9.320;2022-07-11T03:55:42;4.90;;;2.05;;
23444;SDS011;11895;48.738;9.320;2022-07-11T03:58:09;6.60;;;2.10;;
23444;SDS011;11895;48.738;9.320;2022-07-11T04:00:38;5.65;;;1.88;;
23444;SDS011;11895;48.738;9.320;2022-07-11T04:03:07;4.47;;;1.70;;
23444;SDS011;11895;48.738;9.320;2022-07-11T04:05:34;6.78;;;1.80;;
23444;SDS011;11895;48.738;9.320;2022-07-11T04:08:02;8.10;;;1.88;;
23444;SDS011;11895;48.738;9.320;2022-07-11T04:10:30;6.85;;;1.80;;
23444;SDS011;11895;48.738;9.320;2022-07-11T04:12:57;3.58;;;1.67;;
23444;SDS011;11895;48.738;9.320;2022-07-11T04:15:25;7.45;;;2.15;;
23444;SDS011;11895;48.738;9.320;2022-07-11T04:17:54;5.90;;;2.13;;
23444;SDS011;11895;48.738;9.320;2022-07-11T04:22:50;8.82;;;2.08;;
23444;SDS011;11895;48.738;9.320;2022-07-11T04:25:18;5.80;;;2.15;;
23444;SDS011;11895;48.738;9.320;2022-07-11T04:27:46;6.05;;;2.05;;
23444;SDS011;11895;48.738;9.320;2022-07-11T04:30:13;6.97;;;1.83;;
23444;SDS011;11895;48.738;9.320;2022-07-11T04:32:41;6.40;;;2.15;;
23444;SDS011;11895;48.738;9.320;2022-07-11T04:35:09;5.23;;;2.20;;
23444;SDS011;11895;48.738;9.320;2022-07-11T04:37:36;9.82;;;2.45;;
23444;SDS011;11895;48.738;9.320;2022-07-11T04:40:04;4.38;;;2.10;;
23444;SDS011;11895;48.738;9.320;2022-07-11T04:42:38;5.47;;;2.00;;
23444;SDS011;11895;48.738;9.320;2022-07-11T04:45:06;5.13;;;1.80;;
23444;SDS011;11895;48.738;9.320;2022-07-11T04:47:36;5.95;;;2.05;;
23444;SDS011;11895;48.738;9.320;2022-07-11T04:50:04;8.93;;;1.88;;
23444;SDS011;11895;48.738;9.320;2022-07-11T04:52:35;5.55;;;1.88;;
23444;SDS011;11895;48.738;9.320;2022-07-11T04:55:04;5.40;;;2.10;;
23444;SDS011;11895;48.738;9.320;2022-07-11T04:57:33;5.82;;;1.75;;
23444;SDS011;11895;48.738;9.320;2022-07-11T05:00:00;6.68;;;2.33;;
23444;SDS011;11895;48.738;9.320;2022-07-11T05:02:29;6.30;;;2.00;;
23444;SDS011;11895;48.738;9.320;2022-07-11T05:04:58;7.45;;;1.58;;
23444;SDS011;11895;48.738;9.320;2022-07-11T05:07:27;12.65;;;2.92;;
23444;SDS011;11895;48.738;9.320;2022-07-11T05:09:56;6.10;;;1.70;;
23444;SDS011;11895;48.738;9.320;2022-07-11T05:12:24;4.38;;;1.75;;
23444;SDS011;11895;48.738;9.320;2022-07-11T05:14:53;7.88;;;1.88;;
23444;SDS011;11895;48.738;9.320;2022-07-11T05:17:21;6.35;;;1.75;;
23444;SDS011;11895;48.738;9.320;2022-07-11T05:19:49;5.75;;;2.17;;
23444;SDS011;11895;48.738;9.320;2022-07-11T05:22:17;3.75;;;1.77;;
23444;SDS011;11895;48.738;9.320;2022-07-11T05:24:45;7.15;;;1.77;;
23444;SDS011;11895;48.738;9.320;2022-07-11T05:27:13;6.18;;;2.08;;
23444;SDS011;11895;48.738;9.320;2022-07-11T05:29:41;9.13;;;2.65;;
23444;SDS011;11895;48.738;9.320;2022-07-11T05:32:08;8.90;;;2.10;;
23444;SDS011;11895;48.738;9.320;2022-07-11T05:34:37;6.28;;;2.17;;
23444;SDS011;11895;48.738;9.320;2022-07-11T05:37:05;7.75;;;2.15;;
23444;SDS011;11895;48.738;9.320;2022-07-11T05:39:33;5.55;;;2.42;;
23444;SDS011;11895;48.738;9.320;2022-07-11T05:42:00;5.05;;;1.92;;
23444;SDS011;11895;48.738;9.320;2022-07-11T05:44:28;6.25;;;1.77;;
23444;SDS011;11895;48.738;9.320;2022-07-11T05:46:59;8.43;;;2.40;;
23444;SDS011;11895;48.738;9.320;2022-07-11T05:49:31;9.93;;;2.50;;
23444;SDS011;11895;48.738;9.320;2022-07-11T05:52:00;6.20;;;2.03;;
23444;SDS011;11895;48.738;9.320;2022-07-11T05:54:31;5.57;;;1.80;;
23444;SDS011;11895;48.738;9.320;2022-07-11T05:56:59;4.82;;;1.60;;
23444;SDS011;11895;48.738;9.320;2022-07-11T05:59:31;10.13;;;2.17;;
23444;SDS011;11895;48.738;9.320;2022-07-11T06:02:00;5.28;;;2.03;;
23444;SDS011;11895;48.738;9.320;2022-07-11T06:04:29;6.35;;;2.05;;
23444;SDS011;11895;48.738;9.320;2022-07-11T06:07:00;5.30;;;1.80;;
23444;SDS011;11895;48.738;9.320;2022-07-11T06:09:28;3.80;;;1.63;;
23444;SDS011;11895;48.738;9.320;2022-07-11T06:11:56;10.10;;;2.05;;
23444;SDS011;11895;48.738;9.320;2022-07-11T06:14:26;4.68;;;1.85;;
23444;SDS011;11895;48.738;9.320;2022-07-11T06:16:53;6.03;;;1.90;;
23444;SDS011;11895;48.738;9.320;2022-07-11T06:19:21;3.90;;;1.95;;
23444;SDS011;11895;48.738;9.320;2022-07-11T06:21:49;3.83;;;1.50;;
23444;SDS011;11895;48.738;9.320;2022-07-11T06:24:16;4.05;;;1.67;;
23444;SDS011;11895;48.738;9.320;2022-07-11T06:26:45;5.18;;;1.90;;
23444;SDS011;11895;48.738;9.320;2022-07-11T06:29:13;3.80;;;1.40;;
23444;SDS011;11895;48.738;9.320;2022-07-11T06:31:40;8.25;;;2.28;;
23444;SDS011;11895;48.738;9.320;2022-07-11T06:34:08;5.43;;;1.83;;
23444;SDS011;11895;48.738;9.320;2022-07-11T06:36:36;5.47;;;2.15;;
23444;SDS011;11895;48.738;9.320;2022-07-11T06:39:03;4.63;;;1.95;;
23444;SDS011;11895;48.738;9.320;2022-07-11T06:41:31;7.47;;;2.28;;
23444;SDS011;11895;48.738;9.320;2022-07-11T06:43:58;6.50;;;1.58;;
23444;SDS011;11895;48.738;9.320;2022-07-11T06:46:30;5.80;;;1.73;;
23444;SDS011;11895;48.738;9.320;2022-07-11T06:49:01;7.35;;;2.22;;
23444;SDS011;11895;48.738;9.320;2022-07-11T06:51:30;4.97;;;2.20;;
23444;SDS011;11895;48.738;9.320;2022-07-11T06:54:02;4.85;;;1.95;;
23444;SDS011;11895;48.738;9.320;2022-07-11T06:56:30;5.50;;;2.28;;
23444;SDS011;11895;48.738;9.320;2022-07-11T06:58:58;6.15;;;2.03;;
23444;SDS011;11895;48.738;9.320;2022-07-11T07:01:25;4.97;;;2.00;;
23444;SDS011;11895;48.738;9.320;2022-07-11T07:03:53;5.38;;;1.88;;
23444;SDS011;11895;48.738;9.320;2022-07-11T07:06:25;5.90;;;2.05;;
23444;SDS011;11895;48.738;9.320;2022-07-11T07:08:54;12.57;;;2.50;;
23444;SDS011;11895;48.738;9.320;2022-07-11T07:11:21;4.43;;;2.47;;
23444;SDS011;11895;48.738;9.320;2022-07-11T07:13:50;4.57;;;2.00;;
23444;SDS011;11895;48.738;9.320;2022-07-11T07:16:18;6.18;;;2.35;;
23444;SDS011;11895;48.738;9.320;2022-07-11T07:18:46;8.38;;;2.80;;
23444;SDS011;11895;48.738;9.320;2022-07-11T07:21:15;3.63;;;2.20;;
23444;SDS011;11895;48.738;9.320;2022-07-11T07:23:44;6.07;;;1.95;;
23444;SDS011;11895;48.738;9.320;2022-07-11T07:26:11;6.25;;;2.10;;
23444;SDS011;11895;48.738;9.320;2022-07-11T07:28:39;5.13;;;2.08;;
23444;SDS011;11895;48.738;9.320;2022-07-11T07:31:09;4.10;;;1.67;;
23444;SDS011;11895;48.738;9.320;2022-07-11T07:33:42;6.20;;;1.73;;
23444;SDS011;11895;48.738;9.320;2022-07-11T07:36:13;5.03;;;2.25;;
23444;SDS011;11895;48.738;9.320;2022-07-11T07:38:43;9.98;;;1.90;;
23444;SDS011;11895;48.738;9.320;2022-07-11T07:41:14;2.07;;;1.60;;
23444;SDS011;11895;48.738;9.320;2022-07-11T07:43:42;4.10;;;1.77;;
23444;SDS011;11895;48.738;9.320;2022-07-11T07:46:11;4.22;;;1.73;;
23444;SDS011;11895;48.738;9.320;2022-07-11T07:48:40;3.30;;;1.42;;
23444;SDS011;11895;48.738;9.320;2022-07-11T07:53:42;2.80;;;1.45;;
23444;SDS011;11895;48.738;9.320;2022-07-11T07:56:11;6.75;;;1.83;;
23444;SDS011;11895;48.738;9.320;2022-07-11T07:58:39;3.07;;;1.70;;
23444;SDS011;11895;48.738;9.320;2022-07-11T08:01:06;2.38;;;1.50;;
23444;SDS011;11895;48.738;9.320;2022-07-11T08:03:54;4.90;;;1.63;;
23444;SDS011;11895;48.738;9.320;2022-07-11T08:06:22;2.20;;;1.50;;
23444;SDS011;11895;48.738;9.320;2022-07-11T08:08:50;2.90;;;1.30;;
23444;SDS011;11895;48.738;9.320;2022-07-11T08:11:18;2.78;;;1.38;;
23444;SDS011;11895;48.738;9.320;2022-07-11T08:14:02;5.35;;;1.50;;
23444;SDS011;11895;48.738;9.320;2022-07-11T08:16:31;4.63;;;1.58;;
23444;SDS011;11895;48.738;9.320;2022-07-11T08:19:00;1.90;;;1.40;;
23444;SDS011;11895;48.738;9.320;2022-07-11T08:21:30;4.97;;;1.30;;
23444;SDS011;11895;48.738;9.320;2022-07-11T08:23:59;3.38;;;1.70;;
23444;SDS011;11895;48.738;9.320;2022-07-11T08:29:01;1.77;;;1.33;;
23444;SDS011;11895;48.738;9.320;2022-07-11T08:31:31;2.45;;;0.98;;
23444;SDS011;11895;48.738;9.320;2022-07-11T08:34:01;7.10;;;1.42;;
23444;SDS011;11895;48.738;9.320;2022-07-11T08:36:29;1.95;;;0.90;;
23444;SDS011;11895;48.738;9.320;2022-07-11T08:38:58;3.25;;;1.15;;
23444;SDS011;11895;48.738;9.320;2022-07-11T08:41:27;2.47;;;1.05;;
23444;SDS011;11895;48.738;9.320;2022-07-11T08:43:55;1.98;;;1.23;;
23444;SDS011;11895;48.738;9.320;2022-07-11T08:46:25;9.70;;;1.10;;
23444;SDS011;11895;48.738;9.320;2022-07-11T08:48:56;3.38;;;0.80;;
23444;SDS011;11895;48.738;9.320;2022-07-11T08:51:30;1.30;;;0.82;;
23444;SDS011;11895;48.738;9.320;2022-07-11T08:54:03;2.50;;;1.00;;
23444;SDS011;11895;48.738;9.320;2022-07-11T08:56:32;3.00;;;1.15;;
23444;SDS011;11895;48.738;9.320;2022-07-11T09:03:59;3.95;;;1.00;;
23444;SDS011;11895;48.738;9.320;2022-07-11T09:06:30;4.65;;;1.23;;
23444;SDS011;11895;48.738;9.320;2022-07-11T09:09:00;1.60;;;0.80;;
23444;SDS011;11895;48.738;9.320;2022-07-11T09:11:28;1.33;;;0.90;;
23444;SDS011;11895;48.738;9.320;2022-07-11T09:14:26;1.30;;;0.68;;
23444;SDS011;11895;48.738;9.320;2022-07-11T09:16:59;2.80;;;0.95;;
23444;SDS011;11895;48.738;9.320;2022-07-11T09:19:32;3.40;;;0.60;;
23444;SDS011;11895;48.738;9.320;2022-07-11T09:22:12;1.10;;;0.60;;
23444;SDS011;11895;48.738;9.320;2022-07-11T09:27:59;1.00;;;0.63;;
23444;SDS011;11895;48.738;9.320;2022-07-11T09:30:36;4.18;;;0.80;;
23444;SDS011;11895;48.738;9.320;2022-07-11T09:33:07;2.20;;;0.60;;
23444;SDS011;11895;48.738;9.320;2022-07-11T09:35:38;0.90;;;0.60;;
23444;SDS011;11895;48.738;9.320;2022-07-11T09:38:09;1.85;;;0.82;;
23444;SDS011;11895;48.738;9.320;2022-07-11T09:40:43;1.35;;;0.80;;
23444;SDS011;11895;48.738;9.320;2022-07-11T09:43:14;1.35;;;0.70;;
23444;SDS011;11895;48.738;9.320;2022-07-11T09:45:51;1.38;;;0.93;;
23444;SDS011;11895;48.738;9.320;2022-07-11T09:48:19;1.83;;;0.70;;
23444;SDS011;11895;48.738;9.320;2022-07-11T09:50:56;4.60;;;0.63;;
23444;SDS011;11895;48.738;9.320;2022-07-11T09:53:30;1.33;;;0.60;;
23444;SDS011;11895;48.738;9.320;2022-07-11T09:55:59;2.22;;;0.73;;
23444;SDS011;11895;48.738;9.320;2022-07-11T09:58:28;1.10;;;0.60;;
23444;SDS011;11895;48.738;9.320;2022-07-11T10:03:24;0.88;;;0.55;;
23444;SDS011;11895;48.738;9.320;2022-07-11T10:06:13;1.52;;;0.70;;
23444;SDS011;11895;48.738;9.320;2022-07-11T10:08:41;1.95;;;0.73;;
23444;SDS011;11895;48.738;9.320;2022-07-11T10:11:09;2.03;;;0.75;;
23444;SDS011;11895;48.738;9.320;2022-07-11T10:13:38;1.10;;;0.70;;
23444;SDS011;11895;48.738;9.320;2022-07-11T10:16:12;2.40;;;0.80;;
23444;SDS011;11895;48.738;9.320;2022-07-11T10:18:53;3.22;;;0.70;;
23444;SDS011;11895;48.738;9.320;2022-07-11T10:24:50;2.33;;;0.80;;
23444;SDS011;11895;48.738;9.320;2022-07-11T10:30:48;1.55;;;0.75;;
23444;SDS011;11895;48.738;9.320;2022-07-11T10:33:18;1.05;;;0.50;;
23444;SDS011;11895;48.738;9.320;2022-07-11T10:35:47;2.63;;;1.15;;
23444;SDS011;11895;48.738;9.320;2022-07-11T10:38:17;1.17;;;0.60;;
23444;SDS011;11895;48.738;9.320;2022-07-11T10:40:56;2.03;;;0.70;;
23444;SDS011;11895;48.738;9.320;2022-07-11T10:46:08;1.30;;;0.60;;
23444;SDS011;11895;48.738;9.320;2022-07-11T10:48:56;1.75;;;0.77;;
23444;SDS011;11895;48.738;9.320;2022-07-11T10:51:44;2.05;;;0.93;;
23444;SDS011;11895;48.738;9.320;2022-07-11T10:57:21;1.75;;;0.75;;
23444;SDS011;11895;48.738;9.320;2022-07-11T11:00:12;1.75;;;0.70;;
23444;SDS011;11895;48.738;9.320;2022-07-11T11:03:03;0.93;;;0.80;;
23444;SDS011;11895;48.738;9.320;2022-07-11T11:11:04;1.55;;;0.75;;
23444;SDS011;11895;48.738;9.320;2022-07-11T11:16:47;1.23;;;0.73;;
23444;SDS011;11895;48.738;9.320;2022-07-11T11:22:19;1.30;;;0.60;;
23444;SDS011;11895;48.738;9.320;2022-07-11T11:24:50;1.00;;;0.73;;
23444;SDS011;11895;48.738;9.320;2022-07-11T11:27:58;1.55;;;0.65;;
23444;SDS011;11895;48.738;9.320;2022-07-11T11:30:31;1.63;;;0.80;;
23444;SDS011;11895;48.738;9.320;2022-07-11T11:32:59;0.90;;;0.70;;
23444;SDS011;11895;48.738;9.320;2022-07-11T11:35:27;1.17;;;0.90;;
23444;SDS011;11895;48.738;9.320;2022-07-11T11:37:57;1.23;;;0.60;;
23444;SDS011;11895;48.738;9.320;2022-07-11T11:40:26;1.25;;;0.70;;
23444;SDS011;11895;48.738;9.320;2022-07-11T11:42:55;1.20;;;1.02;;
23444;SDS011;11895;48.738;9.320;2022-07-11T11:45:23;1.05;;;0.90;;
23444;SDS011;11895;48.738;9.320;2022-07-11T11:47:50;1.30;;;0.90;;
23444;SDS011;11895;48.738;9.320;2022-07-11T11:50:19;1.75;;;0.70;;
23444;SDS011;11895;48.738;9.320;2022-07-11T11:52:46;4.82;;;0.90;;
23444;SDS011;11895;48.738;9.320;2022-07-11T11:55:14;4.28;;;0.80;;
23444;SDS011;11895;48.738;9.320;2022-07-11T11:57:44;2.20;;;0.90;;
23444;SDS011;11895;48.738;9.320;2022-07-11T12:00:22;0.90;;;0.60;;
23444;SDS011;11895;48.738;9.320;2022-07-11T12:03:13;0.52;;;0.50;;
23444;SDS011;11895;48.738;9.320;2022-07-11T12:05:52;1.02;;;0.75;;
23444;SDS011;11895;48.738;9.320;2022-07-11T12:08:25;0.93;;;0.70;;
23444;SDS011;11895;48.738;9.320;2022-07-11T12:10:54;4.43;;;0.80;;
23444;SDS011;11895;48.738;9.320;2022-07-11T12:13:23;1.35;;;0.80;;
23444;SDS011;11895;48.738;9.320;2022-07-11T12:15:51;3.10;;;0.85;;
23444;SDS011;11895;48.738;9.320;2022-07-11T12:18:59;2.25;;;0.90;;
23444;SDS011;11895;48.738;9.320;2022-07-11T12:21:29;9.93;;;3.05;;
23444;SDS011;11895;48.738;9.320;2022-07-11T12:24:01;3.97;;;1.50;;
23444;SDS011;11895;48.738;9.320;2022-07-11T12:26:35;3.85;;;1.52;;
23444;SDS011;11895;48.738;9.320;2022-07-11T12:31:55;4.13;;;1.00;;
23444;SDS011;11895;48.738;9.320;2022-07-11T12:37:08;1.77;;;1.20;;
23444;SDS011;11895;48.738;9.320;2022-07-11T12:39:46;3.45;;;0.90;;
23444;SDS011;11895;48.738;9.320;2022-07-11T12:42:32;2.67;;;0.90;;
23444;SDS011;11895;48.738;9.320;2022-07-11T12:45:02;4.18;;;0.93;;
23444;SDS011;11895;48.738;9.320;2022-07-11T12:47:45;2.20;;;1.05;;
23444;SDS011;11895;48.738;9.320;2022-07-11T12:50:26;1.55;;;0.90;;
23444;SDS011;11895;48.738;9.320;2022-07-11T12:52:56;1.23;;;0.90;;
23444;SDS011;11895;48.738;9.320;2022-07-11T12:55:26;5.55;;;1.10;;
23444;SDS011;11895;48.738;9.320;2022-07-11T13:00:56;3.55;;;0.88;;
23444;SDS011;11895;48.738;9.320;2022-07-11T13:03:30;3.08;;;1.02;;
23444;SDS011;11895;48.738;9.320;2022-07-11T13:06:00;8.68;;;2.05;;
23444;SDS011;11895;48.738;9.320;2022-07-11T13:08:31;4.25;;;1.40;;
23444;SDS011;11895;48.738;9.320;2022-07-11T13:11:13;1.65;;;1.00;;
23444;SDS011;11895;48.738;9.320;2022-07-11T13:13:47;5.03;;;1.20;;
23444;SDS011;11895;48.738;9.320;2022-07-11T13:16:17;2.40;;;1.60;;
23444;SDS011;11895;48.738;9.320;2022-07-11T13:18:46;4.05;;;0.80;;
23444;SDS011;11895;48.738;9.320;2022-07-11T13:21:16;1.85;;;1.35;;
23444;SDS011;11895;48.738;9.320;2022-07-11T13:23:43;3.45;;;1.08;;
23444;SDS011;11895;48.738;9.320;2022-07-11T13:26:11;3.03;;;1.10;;
23444;SDS011;11895;48.738;9.320;2022-07-11T13:28:39;1.65;;;0.82;;
23444;SDS011;11895;48.738;9.320;2022-07-11T13:31:07;2.88;;;0.82;;
23444;SDS011;11895;48.738;9.320;2022-07-11T13:33:41;3.08;;;1.42;;
23444;SDS011;11895;48.738;9.320;2022-07-11T13:36:09;1.90;;;1.30;;
23444;SDS011;11895;48.738;9.320;2022-07-11T13:38:37;2.65;;;1.25;;
23444;SDS011;11895;48.738;9.320;2022-07-11T13:41:06;4.68;;;1.20;;
23444;SDS011;11895;48.738;9.320;2022-07-11T13:43:42;5.55;;;1.33;;
23444;SDS011;11895;48.738;9.320;2022-07-11T13:46:11;2.97;;;1.33;;
23444;SDS011;11895;48.738;9.320;2022-07-11T13:48:40;4.63;;;1.30;;
23444;SDS011;11895;48.738;9.320;2022-07-11T13:51:14;2.80;;;1.95;;
23444;SDS011;11895;48.738;9.320;2022-07-11T13:53:42;3.92;;;1.83;;
23444;SDS011;11895;48.738;9.320;2022-07-11T13:56:10;3.97;;;2.00;;
23444;SDS011;11895;48.738;9.320;2022-07-11T13:58:38;2.03;;;1.10;;
23444;SDS011;11895;48.738;9.320;2022-07-11T14:01:06;3.85;;;1.05;;
23444;SDS011;11895;48.738;9.320;2022-07-11T14:03:34;2.80;;;1.52;;
23444;SDS011;11895;48.738;9.320;2022-07-11T14:06:01;2.40;;;1.07;;
23444;SDS011;11895;48.738;9.320;2022-07-11T14:08:29;7.30;;;3.92;;
23444;SDS011;11895;48.738;9.320;2022-07-11T14:10:58;6.45;;;2.92;;
23444;SDS011;11895;48.738;9.320;2022-07-11T14:13:26;7.03;;;2.85;;
23444;SDS011;11895;48.738;9.320;2022-07-11T14:15:54;3.15;;;1.60;;
23444;SDS011;11895;48.738;9.320;2022-07-11T14:18:25;2.33;;;1.95;;
23444;SDS011;11895;48.738;9.320;2022-07-11T14:20:53;5.07;;;2.20;;
23444;SDS011;11895;48.738;9.320;2022-07-11T14:25:51;3.78;;;1.42;;
23444;SDS011;11895;48.738;9.320;2022-07-11T14:28:19;2.05;;;1.02;;
23444;SDS011;11895;48.738;9.320;2022-07-11T14:30:51;3.33;;;1.80;;
23444;SDS011;11895;48.738;9.320;2022-07-11T14:33:19;2.08;;;1.50;;
23444;SDS011;11895;48.738;9.320;2022-07-11T14:38:15;4.75;;;3.42;;
23444;SDS011;11895;48.738;9.320;2022-07-11T14:40:43;3.72;;;2.35;;
23444;SDS011;11895;48.738;9.320;2022-07-11T14:43:11;5.18;;;1.10;;
23444;SDS011;11895;48.738;9.320;2022-07-11T14:48:07;4.07;;;1.30;;
23444;SDS011;11895;48.738;9.320;2022-07-11T14:50:35;2.42;;;1.35;;
23444;SDS011;11895;48.738;9.320;2022-07-11T14:53:02;3.80;;;1.20;;
23444;SDS011;11895;48.738;9.320;2022-07-11T14:55:30;2.20;;;1.08;;
23444;SDS011;11895;48.738;9.320;2022-07-11T14:57:58;5.05;;;1.10;;
23444;SDS011;11895;48.738;9.320;2022-07-11T15:00:25;5.95;;;1.65;;
23444;SDS011;11895;48.738;9.320;2022-07-11T15:02:53;4.47;;;1.23;;
23444;SDS011;11895;48.738;9.320;2022-07-11T15:05:39;2.25;;;1.40;;
23444;SDS011;11895;48.738;9.320;2022-07-11T15:08:07;2.65;;;1.40;;
23444;SDS011;11895;48.738;9.320;2022-07-11T15:10:53;4.22;;;1.17;;
23444;SDS011;11895;48.738;9.320;2022-07-11T15:13:40;1.63;;;1.20;;
23444;SDS011;11895;48.738;9.320;2022-07-11T15:16:08;2.78;;;1.10;;
23444;SDS011;11895;48.738;9.320;2022-07-11T15:18:36;3.00;;;1.30;;
23444;SDS011;11895;48.738;9.320;2022-07-11T15:21:04;2.03;;;1.30;;
23444;SDS011;11895;48.738;9.320;2022-07-11T15:23:31;3.73;;;1.27;;
23444;SDS011;11895;48.738;9.320;2022-07-11T15:25:59;3.15;;;1.25;;
23444;SDS011;11895;48.738;9.320;2022-07-11T15:28:27;3.42;;;1.10;;
23444;SDS011;11895;48.738;9.320;2022-07-11T15:31:00;1.65;;;1.05;;
23444;SDS011;11895;48.738;9.320;2022-07-11T15:33:28;3.88;;;1.77;;
23444;SDS011;11895;48.738;9.320;2022-07-11T15:35:55;2.83;;;1.73;;
23444;SDS011;11895;48.738;9.320;2022-07-11T15:38:23;3.13;;;1.70;;
23444;SDS011;11895;48.738;9.320;2022-07-11T15:40:52;5.68;;;1.70;;
23444;SDS011;11895;48.738;9.320;2022-07-11T15:43:22;2.33;;;1.38;;
23444;SDS011;11895;48.738;9.320;2022-07-11T15:45:49;6.15;;;1.73;;
23444;SDS011;11895;48.738;9.320;2022-07-11T15:48:17;4.57;;;1.65;;
23444;SDS011;11895;48.738;9.320;2022-07-11T15:50:45;2.67;;;1.27;;
23444;SDS011;11895;48.738;9.320;2022-07-11T15:53:13;2.03;;;1.27;;
23444;SDS011;11895;48.738;9.320;2022-07-11T15:55:41;5.13;;;2.15;;
23444;SDS011;11895;48.738;9.320;2022-07-11T15:58:08;3.40;;;1.88;;
23444;SDS011;11895;48.738;9.320;2022-07-11T16:00:36;4.65;;;3.53;;
23444;SDS011;11895;48.738;9.320;2022-07-11T16:03:05;7.85;;;5.50;;
23444;SDS011;11895;48.738;9.320;2022-07-11T16:05:34;8.30;;;5.15;;
23444;SDS011;11895;48.738;9.320;2022-07-11T16:08:02;7.30;;;4.93;;
23444;SDS011;11895;48.738;9.320;2022-07-11T16:10:30;6.10;;;2.50;;